Time;durP1;ratioP1;P1;durP2;ratioP2;P2;SDS_P1;SDS_P2;PMS_P1;PMS_P2;Temp;Humidity;BMP_temperature;BMP_pressure;BME280_temperature;BME280_humidity;BME280_pressure;Samples;Min_cycle;Max_cycle;Signal;HPM_P1;HPM_P2
2022/05/01 00:01:24;;;;;;;0.63;0.63;;;;;;;12.41;51.80;101817.03;5106668;28;20038;-82
2022/05/01 00:03:56;;;;;;;0.45;0.45;;;;;;;12.28;52.35;101809.34;5114946;28;20042;-81
2022/05/01 00:06:33;;;;;;;0.68;0.68;;;;;;;12.33;51.05;101811.03;5126997;28;20034;-82
2022/05/01 00:09:08;;;;;;;0.60;0.60;;;;;;;12.29;51.25;101804.94;5106198;28;20070;-82
2022/05/01 00:11:41;;;;;;;0.47;0.47;;;;;;;12.33;50.61;101809.25;5142458;28;20110;-82
2022/05/01 00:14:23;;;;;;;0.82;0.82;;;;;;;12.33;50.31;101811.88;5128424;28;20066;-81
2022/05/01 00:16:56;;;;;;;0.55;0.55;;;;;;;12.32;50.62;101804.88;5129180;28;20030;-82
2022/05/01 00:19:27;;;;;;;2.22;2.03;;;;;;;12.28;50.24;101808.47;5116388;28;20042;-81
2022/05/01 00:22:00;;;;;;;1.48;1.38;;;;;;;12.37;50.36;101802.16;5115546;28;20112;-81
2022/05/01 00:24:51;;;;;;;4.32;2.45;;;;;;;12.42;50.49;101806.47;5127049;28;20046;-82
2022/05/01 00:27:22;;;;;;;0.73;0.73;;;;;;;12.26;52.26;101798.00;5129687;28;20038;-82
2022/05/01 00:29:55;;;;;;;1.05;0.82;;;;;;;12.28;51.34;101803.22;5137672;28;20023;-82
2022/05/01 00:32:26;;;;;;;1.05;1.05;;;;;;;12.30;51.08;101801.44;5150757;28;20448;-82
2022/05/01 00:37:50;;;;;;;0.50;0.50;;;;;;;12.18;51.38;101791.97;5133116;28;20058;-81
2022/05/01 00:40:21;;;;;;;0.35;0.35;;;;;;;12.16;51.36;101799.03;5118059;28;20054;-82
2022/05/01 00:42:52;;;;;;;0.52;0.52;;;;;;;12.03;52.23;101803.63;5130706;28;20316;-82
2022/05/01 00:45:25;;;;;;;0.75;0.75;;;;;;;12.13;52.98;101799.06;5125519;28;20108;-82
2022/05/01 00:47:56;;;;;;;0.73;0.73;;;;;;;12.05;52.51;101796.56;5140060;28;20105;-81
2022/05/01 00:50:27;;;;;;;0.93;0.93;;;;;;;12.15;52.54;101796.44;5131956;28;20173;-81
2022/05/01 00:52:57;;;;;;;0.95;0.95;;;;;;;12.22;51.46;101790.16;5115991;28;20117;-81
2022/05/01 00:55:34;;;;;;;0.75;0.75;;;;;;;12.03;52.23;101786.94;5133614;28;20061;-82
2022/05/01 00:58:06;;;;;;;0.73;0.73;;;;;;;12.07;53.23;101786.00;5122757;28;20030;-81
2022/05/01 01:00:37;;;;;;;0.73;0.73;;;;;;;11.93;53.19;101787.09;5113556;28;20607;-81
2022/05/01 01:03:08;;;;;;;0.75;0.75;;;;;;;11.87;53.94;101781.03;5115250;28;20282;-81
2022/05/01 01:05:41;;;;;;;0.60;0.60;;;;;;;11.84;53.53;101784.59;5154385;28;20034;-82
2022/05/01 01:08:11;;;;;;;1.45;1.35;;;;;;;11.79;53.42;101787.28;5122199;28;20034;-81
2022/05/01 01:10:47;;;;;;;1.40;1.30;;;;;;;11.72;54.00;101787.38;5136132;28;20030;-83
2022/05/01 01:13:28;;;;;;;1.23;1.13;;;;;;;11.86;53.81;101784.56;5129094;28;20165;-82
2022/05/01 01:16:07;;;;;;;0.75;0.75;;;;;;;11.87;53.49;101786.31;5137464;28;20053;-82
2022/05/01 01:18:40;;;;;;;1.30;1.20;;;;;;;11.86;52.94;101785.41;5103567;28;20050;-82
2022/05/01 01:21:11;;;;;;;0.55;0.55;;;;;;;11.78;52.62;101784.66;5113938;28;20019;-82
2022/05/01 01:23:42;;;;;;;0.80;0.80;;;;;;;11.61;54.96;101785.78;5133543;28;20042;-82
2022/05/01 01:26:14;;;;;;;1.38;1.27;;;;;;;11.57;54.67;101784.09;5138345;28;20030;-81
2022/05/01 01:28:45;;;;;;;0.68;0.68;;;;;;;11.68;54.16;101796.22;5127141;28;20039;-82
2022/05/01 01:34:11;;;;;;;1.33;1.30;;;;;;;11.85;53.75;101791.59;5113053;28;20465;-81
2022/05/01 01:36:46;;;;;;;1.10;1.08;;;;;;;11.71;53.46;101793.53;5109363;28;20023;-82
2022/05/01 01:39:18;;;;;;;1.08;1.05;;;;;;;11.70;53.97;101789.16;5114609;28;20158;-82
2022/05/01 01:41:59;;;;;;;1.75;0.80;;;;;;;11.33;55.79;101791.44;5115291;28;20113;-81
2022/05/01 01:44:31;;;;;;;0.70;0.70;;;;;;;11.46;55.03;101793.88;5116000;28;20073;-81
2022/05/01 01:47:01;;;;;;;0.93;0.93;;;;;;;11.40;54.75;101794.88;5113355;28;20045;-81
2022/05/01 01:49:32;;;;;;;0.65;0.65;;;;;;;11.32;55.71;101794.94;5134918;28;20046;-81
2022/05/01 01:52:04;;;;;;;10.75;3.00;;;;;;;11.44;54.97;101793.91;5132435;28;20033;-81
2022/05/01 01:54:37;;;;;;;1.33;1.23;;;;;;;11.48;54.23;101789.47;5115694;28;20451;-82
2022/05/01 01:57:08;;;;;;;0.20;0.20;;;;;;;11.44;54.47;101788.66;5113396;28;20095;-81
2022/05/01 01:59:39;;;;;;;1.10;1.08;;;;;;;11.48;54.30;101789.47;5104299;28;20054;-81
2022/05/01 02:02:10;;;;;;;2.42;2.20;;;;;;;11.54;54.80;101783.28;5149317;28;20030;-81
2022/05/01 02:04:40;;;;;;;2.08;1.00;;;;;;;11.47;54.42;101793.00;5132516;28;20038;-81
2022/05/01 02:07:11;;;;;;;0.70;0.70;;;;;;;11.39;54.99;101794.88;5113176;28;20537;-81
2022/05/01 02:09:41;;;;;;;0.77;0.77;;;;;;;11.53;53.99;101792.06;5128612;28;20039;-82
2022/05/01 02:12:15;;;;;;;0.85;0.85;;;;;;;11.43;54.90;101778.19;5134458;28;20041;-82
2022/05/01 02:14:46;;;;;;;0.70;0.70;;;;;;;11.50;54.05;101785.09;5111014;28;20058;-82
2022/05/01 02:17:17;;;;;;;1.10;1.02;;;;;;;11.47;54.09;101783.38;5133960;28;20031;-82
2022/05/01 02:19:50;;;;;;;1.10;1.10;;;;;;;11.49;54.61;101778.09;5115368;28;20034;-81
2022/05/01 02:22:21;;;;;;;1.88;1.02;;;;;;;11.43;53.67;101773.78;5125821;28;20050;-82
2022/05/01 02:24:54;;;;;;;1.42;1.30;;;;;;;11.39;54.25;101777.34;5149633;28;20093;-82
2022/05/01 02:27:25;;;;;;;0.80;0.80;;;;;;;11.42;54.30;101779.06;5131892;28;20045;-81
2022/05/01 02:29:56;;;;;;;1.08;1.05;;;;;;;11.45;54.94;101769.38;5114044;28;20026;-81
2022/05/01 02:32:29;;;;;;;1.10;1.10;;;;;;;11.43;54.64;101776.41;5115110;28;20038;-81
2022/05/01 02:35:03;;;;;;;1.05;1.02;;;;;;;11.39;54.53;101779.09;5125827;28;20047;-81
2022/05/01 02:37:37;;;;;;;1.85;1.50;;;;;;;11.39;54.50;101772.09;5114863;28;20034;-81
2022/05/01 02:40:10;;;;;;;2.05;1.95;;;;;;;11.42;54.10;101774.66;5100451;28;20043;-81
2022/05/01 02:42:43;;;;;;;1.45;1.33;;;;;;;11.49;54.43;101768.44;5113767;28;20043;-82
2022/05/01 02:45:14;;;;;;;32.92;1.63;;;;;;;11.27;54.90;101767.88;5132807;28;20039;-82
2022/05/01 02:47:44;;;;;;;1.45;1.35;;;;;;;11.49;54.82;101765.81;5132742;28;20061;-81
2022/05/01 02:50:15;;;;;;;0.68;0.68;;;;;;;11.38;54.68;101769.47;5113315;28;20113;-81
2022/05/01 02:52:46;;;;;;;1.50;1.45;;;;;;;11.39;54.49;101765.97;5124373;28;20026;-81
2022/05/01 02:55:17;;;;;;;1.58;1.48;;;;;;;11.32;55.42;101768.66;5108677;28;20401;-81
2022/05/01 02:57:48;;;;;;;0.68;0.68;;;;;;;11.24;55.82;101761.81;5130235;28;20114;-80
2022/05/01 03:00:19;;;;;;;1.45;1.35;;;;;;;11.27;53.90;101754.75;5139413;28;20065;-81
2022/05/01 03:02:55;;;;;;;1.55;1.45;;;;;;;11.28;54.47;101755.59;5118576;28;20042;-81
2022/05/01 03:05:26;;;;;;;1.95;1.33;;;;;;;11.23;54.20;101758.28;5134810;28;20058;-81
2022/05/01 03:07:59;;;;;;;2.50;1.33;;;;;;;11.26;53.79;101757.38;5124448;28;20029;-82
2022/05/01 03:10:33;;;;;;;0.95;0.95;;;;;;;11.27;53.70;101746.88;5142025;28;20104;-82
2022/05/01 03:13:03;;;;;;;0.75;0.75;;;;;;;11.27;54.01;101756.47;5131800;28;20069;-83
2022/05/01 03:15:34;;;;;;;0.82;0.82;;;;;;;11.23;53.93;101747.78;5170384;28;20027;-83
2022/05/01 03:23:45;;;;;;;5.47;1.15;;;;;;;11.26;54.18;101744.22;5127327;28;20501;-80
2022/05/01 03:26:18;;;;;;;0.73;0.73;;;;;;;11.26;53.76;101747.75;5115049;28;20533;-82
2022/05/01 03:28:49;;;;;;;3.10;2.58;;;;;;;11.24;53.88;101746.88;5113497;28;20128;-80
2022/05/01 03:31:20;;;;;;;1.00;0.70;;;;;;;11.25;53.88;101745.13;5129763;28;20525;-81
2022/05/01 03:33:50;;;;;;;0.50;0.50;;;;;;;11.28;53.74;101740.69;5128155;28;20074;-81
2022/05/01 03:36:21;;;;;;;1.05;1.00;;;;;;;11.26;53.97;101742.50;5113298;28;20034;-81
2022/05/01 03:38:52;;;;;;;1.23;1.13;;;;;;;11.22;54.40;101743.41;5128898;28;20038;-81
2022/05/01 03:41:23;;;;;;;0.75;0.75;;;;;;;11.27;54.29;101746.88;5114453;28;20026;-81
2022/05/01 03:43:56;;;;;;;1.90;1.80;;;;;;;11.23;53.69;101741.66;5124866;28;20465;-81
2022/05/01 03:46:27;;;;;;;0.30;0.30;;;;;;;11.26;53.82;101753.00;5147981;28;20026;-80
2022/05/01 03:48:57;;;;;;;0.47;0.47;;;;;;;11.24;53.82;101741.63;5130762;28;20042;-81
2022/05/01 03:51:31;;;;;;;4.45;1.35;;;;;;;11.23;54.08;101742.53;5120606;28;20121;-82
2022/05/01 03:54:07;;;;;;;3.50;1.77;;;;;;;11.30;54.46;101743.31;5130039;28;20093;-82
2022/05/01 03:56:41;;;;;;;0.93;0.93;;;;;;;11.27;54.04;101744.22;5117091;28;20065;-82
2022/05/01 03:59:17;;;;;;;0.85;0.85;;;;;;;11.25;53.87;101735.50;5161108;28;20048;-81
2022/05/01 04:01:48;;;;;;;0.80;0.80;;;;;;;11.38;55.14;101745.81;5129663;28;20124;-82
2022/05/01 04:04:19;;;;;;;1.85;1.75;;;;;;;11.34;54.35;101745.88;5155019;28;20342;-82
2022/05/01 04:06:50;;;;;;;0.65;0.65;;;;;;;11.22;54.44;101739.94;5115276;28;20027;-82
2022/05/01 04:09:23;;;;;;;1.15;1.15;;;;;;;11.29;54.79;101741.56;5108467;28;20295;-82
2022/05/01 04:11:56;;;;;;;1.13;1.00;;;;;;;11.24;55.08;101740.78;5146349;28;20038;-82
2022/05/01 04:14:26;;;;;;;1.88;1.77;;;;;;;11.22;54.84;101739.94;5099044;28;20038;-82
2022/05/01 04:16:59;;;;;;;3.10;1.55;;;;;;;11.21;55.02;101739.03;5114252;28;20023;-81
2022/05/01 04:19:32;;;;;;;1.38;1.33;;;;;;;11.18;55.06;101737.31;5109798;28;20112;-81
2022/05/01 04:22:04;;;;;;;0.80;0.80;;;;;;;11.17;54.87;101745.25;5113168;28;20038;-81
2022/05/01 04:24:35;;;;;;;1.52;1.42;;;;;;;11.20;54.76;101745.19;5112373;28;20101;-81
2022/05/01 04:27:13;;;;;;;1.02;1.02;;;;;;;11.19;54.80;101740.84;5141948;28;20117;-81
2022/05/01 04:29:47;;;;;;;0.98;0.98;;;;;;;11.17;54.66;101740.84;5110821;28;21446;-81
2022/05/01 04:32:20;;;;;;;1.13;1.13;;;;;;;11.13;54.78;101740.91;5109090;28;20037;-81
2022/05/01 04:34:51;;;;;;;1.05;1.05;;;;;;;11.12;55.68;101742.66;5128372;28;20052;-81
2022/05/01 04:37:22;;;;;;;1.15;1.15;;;;;;;11.12;55.40;101749.66;5109762;28;20138;-81
2022/05/01 04:39:52;;;;;;;1.55;1.45;;;;;;;11.09;55.30;101741.84;5119368;28;20061;-81
2022/05/01 04:42:33;;;;;;;1.15;1.10;;;;;;;11.11;56.20;101742.69;5110174;28;20023;-81
2022/05/01 04:45:05;;;;;;;0.75;0.75;;;;;;;11.13;55.43;101738.28;5119392;28;20154;-81
2022/05/01 04:47:39;;;;;;;1.52;1.48;;;;;;;11.14;55.32;101747.91;5144707;28;20043;-81
2022/05/01 04:50:11;;;;;;;1.42;1.33;;;;;;;10.98;57.28;101747.25;5143847;28;20149;-82
2022/05/01 04:52:42;;;;;;;1.02;0.98;;;;;;;11.03;55.58;101751.53;5134336;28;20037;-82
2022/05/01 04:55:12;;;;;;;1.42;1.33;;;;;;;11.09;55.60;101754.97;5148591;28;20041;-83
2022/05/01 04:57:43;;;;;;;0.55;0.55;;;;;;;10.99;55.59;101755.09;5129732;28;20042;-81
2022/05/01 05:00:14;;;;;;;0.80;0.80;;;;;;;11.07;55.22;101749.75;5130278;28;20074;-81
2022/05/01 05:02:52;;;;;;;0.75;0.75;;;;;;;11.03;55.64;101745.41;5119482;28;20031;-82
2022/05/01 05:05:24;;;;;;;3.63;2.58;;;;;;;11.13;55.50;101746.16;5129499;28;20042;-81
2022/05/01 05:07:55;;;;;;;1.00;1.00;;;;;;;11.14;56.60;101747.91;5117942;28;20034;-81
2022/05/01 05:10:26;;;;;;;1.88;1.75;;;;;;;11.15;55.98;101749.63;5145631;28;20039;-81
2022/05/01 05:12:58;;;;;;;1.17;1.08;;;;;;;11.17;55.52;101748.72;5137877;28;20019;-81
2022/05/01 05:15:34;;;;;;;0.82;0.82;;;;;;;11.02;56.25;101755.06;5139354;28;20046;-82
2022/05/01 05:18:08;;;;;;;0.70;0.70;;;;;;;11.07;56.18;101751.50;5138807;28;20117;-81
2022/05/01 05:20:42;;;;;;;2.22;1.75;;;;;;;11.08;55.82;101751.47;5114409;28;20030;-81
2022/05/01 05:23:13;;;;;;;1.25;1.25;;;;;;;11.10;56.17;101754.09;5131055;28;20026;-81
2022/05/01 05:25:44;;;;;;;1.67;1.35;;;;;;;11.15;56.59;101752.25;5116066;28;20101;-82
2022/05/01 05:28:14;;;;;;;0.35;0.35;;;;;;;11.14;55.83;101755.78;5128754;28;20034;-82
2022/05/01 05:30:46;;;;;;;2.47;1.88;;;;;;;11.15;56.23;101752.25;5122930;28;20039;-81
2022/05/01 05:33:21;;;;;;;0.98;0.93;;;;;;;11.16;55.76;101752.22;5119828;28;20035;-82
2022/05/01 05:35:51;;;;;;;0.80;0.80;;;;;;;11.16;56.65;101764.50;5125014;28;20042;-81
2022/05/01 05:38:22;;;;;;;1.00;0.85;;;;;;;11.09;56.71;101760.22;5103568;28;20179;-81
2022/05/01 05:40:52;;;;;;;0.93;0.93;;;;;;;11.13;56.19;101767.16;5114519;28;20184;-82
2022/05/01 05:43:23;;;;;;;1.55;1.45;;;;;;;11.19;56.01;101769.75;5138384;28;20053;-81
2022/05/01 05:45:54;;;;;;;1.35;1.25;;;;;;;11.29;56.57;101771.34;5135339;28;20031;-81
2022/05/01 05:48:27;;;;;;;0.98;0.98;;;;;;;11.19;57.09;101772.38;5126168;28;20042;-81
2022/05/01 05:50:57;;;;;;;1.42;1.35;;;;;;;11.29;57.36;101762.59;5144239;28;20097;-81
2022/05/01 05:53:28;;;;;;;1.95;1.83;;;;;;;11.19;58.59;101761.84;5128056;28;20041;-81
2022/05/01 05:55:59;;;;;;;2.75;1.40;;;;;;;11.16;57.93;101768.00;5130716;28;20061;-81
2022/05/01 05:58:29;;;;;;;5.05;2.17;;;;;;;11.23;57.12;101768.78;5129919;28;20035;-80
2022/05/01 06:01:00;;;;;;;1.63;1.52;;;;;;;11.21;57.11;101769.72;5129241;28;20046;-81
2022/05/01 06:03:31;;;;;;;1.13;1.13;;;;;;;11.23;56.92;101773.19;5122039;28;20039;-81
2022/05/01 06:06:03;;;;;;;1.38;1.27;;;;;;;11.32;56.32;101762.56;5145792;28;20366;-80
2022/05/01 06:08:35;;;;;;;2.28;2.08;;;;;;;11.28;57.64;101774.00;5129467;28;20042;-81
2022/05/01 06:11:05;;;;;;;1.00;1.00;;;;;;;11.33;57.51;101770.41;5113098;28;20417;-81
2022/05/01 06:13:36;;;;;;;1.95;1.85;;;;;;;11.39;56.42;101768.59;5113507;28;20060;-80
2022/05/01 06:16:07;;;;;;;1.08;1.08;;;;;;;11.25;58.16;101769.66;5114678;28;20054;-81
2022/05/01 06:18:41;;;;;;;1.23;1.10;;;;;;;11.30;57.95;101770.44;5131314;28;20556;-80
2022/05/01 06:21:12;;;;;;;0.95;0.95;;;;;;;11.39;57.29;101776.47;5145500;28;20061;-80
2022/05/01 06:23:45;;;;;;;1.20;1.13;;;;;;;11.42;57.73;101771.19;5127923;28;20080;-82
2022/05/01 06:26:16;;;;;;;2.65;2.15;;;;;;;11.46;57.22;101776.38;5129143;28;20415;-80
2022/05/01 06:28:47;;;;;;;1.50;1.27;;;;;;;11.54;56.64;101772.75;5142931;28;20133;-80
2022/05/01 06:31:18;;;;;;;0.90;0.88;;;;;;;11.50;57.17;101782.47;5156377;28;20022;-81
2022/05/01 06:33:48;;;;;;;0.98;0.98;;;;;;;11.52;56.78;101775.44;5135132;28;20140;-81
2022/05/01 06:36:19;;;;;;;2.35;2.15;;;;;;;11.55;57.34;101778.00;5150936;28;20045;-80
2022/05/01 06:38:49;;;;;;;1.77;1.35;;;;;;;11.45;57.85;101772.00;5127126;28;20106;-80
2022/05/01 06:41:20;;;;;;;3.35;1.77;;;;;;;11.58;57.03;101775.34;5144753;28;20109;-80
2022/05/01 06:43:50;;;;;;;2.88;2.67;;;;;;;11.62;56.86;101774.38;5116918;28;20046;-79
2022/05/01 06:46:21;;;;;;;1.45;1.35;;;;;;;11.61;57.36;101774.41;5129022;28;20555;-80
2022/05/01 06:48:54;;;;;;;3.37;1.93;;;;;;;11.61;59.36;101779.66;5145146;28;20100;-79
2022/05/01 06:51:24;;;;;;;1.70;1.60;;;;;;;11.76;57.54;101778.59;5112921;28;20026;-79
2022/05/01 06:53:55;;;;;;;1.13;1.13;;;;;;;11.73;57.28;101774.25;5110876;28;20034;-80
2022/05/01 06:56:27;;;;;;;3.27;2.53;;;;;;;11.74;57.26;101777.72;5125593;28;20525;-79
2022/05/01 06:58:58;;;;;;;1.27;1.27;;;;;;;11.86;57.30;101782.78;5144165;28;20038;-79
2022/05/01 07:01:28;;;;;;;2.50;2.30;;;;;;;11.74;58.03;101781.22;5129051;28;20034;-79
2022/05/01 07:03:59;;;;;;;1.00;1.00;;;;;;;11.77;57.72;101783.81;5139917;28;20048;-79
2022/05/01 07:06:29;;;;;;;1.00;0.98;;;;;;;11.77;58.13;101785.59;5138913;28;20259;-79
2022/05/01 07:09:00;;;;;;;2.08;1.95;;;;;;;11.90;57.30;101787.13;5155041;28;20026;-80
2022/05/01 07:11:31;;;;;;;2.72;1.98;;;;;;;11.74;58.60;101780.34;5113322;28;20034;-80
2022/05/01 07:14:01;;;;;;;1.42;1.40;;;;;;;11.92;57.88;101784.47;5133356;28;20037;-79
2022/05/01 07:16:31;;;;;;;0.55;0.55;;;;;;;11.91;56.92;101778.34;5147554;28;20073;-79
2022/05/01 07:19:02;;;;;;;0.77;0.77;;;;;;;12.08;56.64;101779.88;5162309;28;20026;-80
2022/05/01 07:21:32;;;;;;;3.50;2.90;;;;;;;11.95;57.85;101787.91;5133897;28;20026;-79
2022/05/01 07:24:06;;;;;;;2.15;1.42;;;;;;;11.97;56.96;101777.41;5148841;28;20026;-79
2022/05/01 07:26:38;;;;;;;0.65;0.65;;;;;;;12.02;57.21;101780.81;5139150;28;20567;-80
2022/05/01 07:29:11;;;;;;;1.63;1.52;;;;;;;11.96;57.43;101779.13;5133104;28;20076;-80
2022/05/01 07:31:42;;;;;;;2.05;1.85;;;;;;;12.00;58.04;101781.75;5113061;28;20027;-80
2022/05/01 07:34:16;;;;;;;1.88;1.63;;;;;;;12.10;57.63;101780.72;5130683;28;20042;-80
2022/05/01 07:36:46;;;;;;;1.75;1.65;;;;;;;12.21;57.90;101784.03;5130303;28;20101;-80
2022/05/01 07:39:17;;;;;;;0.90;0.90;;;;;;;12.20;57.09;101790.16;5107939;28;20045;-80
2022/05/01 07:41:47;;;;;;;3.65;2.03;;;;;;;12.22;58.10;101785.75;5125894;28;20315;-80
2022/05/01 07:44:18;;;;;;;1.40;1.30;;;;;;;12.22;57.66;101791.03;5146413;28;20469;-80
2022/05/01 07:46:48;;;;;;;1.35;1.25;;;;;;;12.23;58.14;101790.13;5127227;28;20081;-80
2022/05/01 07:49:20;;;;;;;1.92;1.83;;;;;;;12.37;57.85;101791.66;5141833;28;20242;-80
2022/05/01 07:51:51;;;;;;;0.82;0.82;;;;;;;12.31;57.83;101791.75;5126736;28;20038;-80
2022/05/01 07:54:22;;;;;;;13.27;2.55;;;;;;;12.40;57.62;101791.59;5112931;28;20046;-80
2022/05/01 07:56:52;;;;;;;2.47;1.63;;;;;;;12.37;58.23;101789.00;5109245;28;20035;-80
2022/05/01 07:59:23;;;;;;;1.70;1.25;;;;;;;12.46;57.28;101794.13;5103705;28;20381;-80
2022/05/01 08:01:56;;;;;;;1.48;1.38;;;;;;;12.45;57.07;101795.00;5128528;28;20053;-80
2022/05/01 08:04:29;;;;;;;0.82;0.82;;;;;;;12.52;57.31;101796.63;5159817;28;20046;-80
2022/05/01 08:07:02;;;;;;;1.33;1.23;;;;;;;12.62;57.05;101794.72;5144851;28;20053;-79
2022/05/01 08:09:32;;;;;;;1.08;1.08;;;;;;;12.74;57.32;101797.13;5127524;28;20077;-80
2022/05/01 08:12:04;;;;;;;0.90;0.90;;;;;;;12.61;57.71;101787.72;5147235;28;20529;-80
2022/05/01 08:14:34;;;;;;;1.52;1.38;;;;;;;12.59;57.94;101786.88;5129072;28;20059;-78
2022/05/01 08:17:05;;;;;;;1.17;1.17;;;;;;;12.71;57.34;101798.94;5134395;28;20026;-80
2022/05/01 08:22:24;;;;;;;1.60;0.80;;;;;;;12.77;56.88;101796.19;5134904;28;20050;-80
2022/05/01 08:24:55;;;;;;;1.40;1.20;;;;;;;12.79;56.63;101789.13;5127009;28;20038;-79
2022/05/01 08:27:25;;;;;;;1.05;1.05;;;;;;;12.76;57.24;101789.19;5124534;28;20033;-79
2022/05/01 08:29:56;;;;;;;2.20;2.10;;;;;;;12.70;58.19;101792.81;5134218;28;20050;-79
2022/05/01 08:32:27;;;;;;;1.13;1.02;;;;;;;12.92;56.69;101784.47;5109035;28;20118;-80
2022/05/01 08:35:00;;;;;;;0.65;0.65;;;;;;;12.88;57.07;101788.94;5127611;28;20049;-79
2022/05/01 08:37:30;;;;;;;2.83;1.58;;;;;;;12.94;56.95;101781.81;5146321;28;20061;-79
2022/05/01 08:40:02;;;;;;;0.93;0.93;;;;;;;13.02;56.96;101787.78;5118970;28;20038;-80
2022/05/01 08:42:35;;;;;;;1.52;1.33;;;;;;;13.05;56.57;101780.72;5124153;28;20054;-80
2022/05/01 08:45:09;;;;;;;1.35;1.30;;;;;;;13.07;56.86;101778.91;5121094;28;20042;-80
2022/05/01 08:47:55;;;;;;;4.15;1.92;;;;;;;13.09;55.85;101778.91;5130365;28;20034;-80
2022/05/01 08:50:26;;;;;;;1.30;1.30;;;;;;;13.18;56.00;101780.44;5156036;28;20042;-79
2022/05/01 08:53:01;;;;;;;2.05;1.58;;;;;;;13.14;55.96;101778.81;5133152;28;20018;-80
2022/05/01 08:55:32;;;;;;;1.45;1.35;;;;;;;13.18;55.83;101783.09;5117921;28;20026;-80
2022/05/01 08:58:03;;;;;;;0.88;0.88;;;;;;;13.39;54.94;101779.16;5128884;28;20042;-80
2022/05/01 09:00:34;;;;;;;4.88;1.83;;;;;;;13.29;54.21;101782.84;5116434;28;20019;-80
2022/05/01 09:03:07;;;;;;;1.83;1.35;;;;;;;13.27;54.92;101787.28;5130650;28;20029;-79
2022/05/01 09:05:39;;;;;;;4.80;3.30;;;;;;;13.23;54.06;101784.72;5134653;28;20457;-80
2022/05/01 09:08:10;;;;;;;0.95;0.95;;;;;;;13.44;54.11;101782.56;5146336;28;20073;-79
2022/05/01 09:10:43;;;;;;;2.08;1.67;;;;;;;13.52;54.33;101782.41;5129298;28;20027;-80
2022/05/01 09:13:23;;;;;;;2.83;1.17;;;;;;;13.33;52.65;101789.81;5128799;28;20019;-80
2022/05/01 09:16:09;;;;;;;1.23;1.02;;;;;;;13.45;52.94;101784.28;5113183;28;20029;-80
2022/05/01 09:18:45;;;;;;;1.40;1.33;;;;;;;13.35;52.36;101793.25;5115793;28;20462;-80
2022/05/01 09:21:16;;;;;;;1.30;1.20;;;;;;;13.45;53.22;101783.44;5128645;28;20198;-79
2022/05/01 09:23:48;;;;;;;0.70;0.70;;;;;;;13.51;53.45;101789.41;5169212;28;20131;-79
2022/05/01 09:26:19;;;;;;;1.45;1.33;;;;;;;13.54;52.19;101792.00;5117330;28;20041;-80
2022/05/01 09:28:54;;;;;;;0.90;0.90;;;;;;;13.61;52.21;101787.47;5118175;28;20042;-79
2022/05/01 09:31:46;;;;;;;2.30;2.03;;;;;;;13.67;51.94;101787.31;5153576;28;20022;-79
2022/05/01 09:34:18;;;;;;;1.70;1.60;;;;;;;13.72;50.98;101792.47;5129673;28;20367;-80
2022/05/01 09:36:49;;;;;;;1.75;0.57;;;;;;;13.68;50.38;101796.06;5113381;28;20112;-81
2022/05/01 09:39:23;;;;;;;1.73;1.63;;;;;;;13.77;51.06;101789.75;5128786;28;20413;-80
2022/05/01 09:41:55;;;;;;;1.27;1.27;;;;;;;13.91;51.42;101778.88;5126980;28;20022;-80
2022/05/01 09:44:28;;;;;;;2.25;1.50;;;;;;;13.81;50.07;101789.63;5145100;28;20117;-80
2022/05/01 09:47:01;;;;;;;0.80;0.80;;;;;;;13.84;50.11;101786.91;5114386;28;20544;-80
2022/05/01 09:49:49;;;;;;;0.77;0.70;;;;;;;13.91;49.96;101784.16;5127947;28;20046;-80
2022/05/01 09:52:19;;;;;;;1.98;1.27;;;;;;;13.99;50.22;101785.69;5143045;28;20479;-80
2022/05/01 09:55:06;;;;;;;1.55;1.33;;;;;;;13.94;48.77;101784.06;5153537;28;20269;-80
2022/05/01 09:57:36;;;;;;;1.35;1.25;;;;;;;14.02;49.47;101790.00;5134365;28;20038;-78
2022/05/01 10:00:10;;;;;;;1.35;1.25;;;;;;;14.03;49.88;101786.47;5166078;28;20031;-79
2022/05/01 10:02:41;;;;;;;3.47;2.08;;;;;;;14.01;48.94;101783.88;5145941;28;20100;-80
2022/05/01 10:05:11;;;;;;;1.95;1.85;;;;;;;13.76;46.29;101780.09;5130934;28;20046;-80
2022/05/01 10:07:42;;;;;;;1.20;1.08;;;;;;;14.10;48.54;101777.50;5148668;28;20130;-79
2022/05/01 10:10:13;;;;;;;1.70;1.08;;;;;;;14.09;48.62;101774.91;5130104;28;20034;-80
2022/05/01 10:12:47;;;;;;;2.58;2.38;;;;;;;14.14;48.33;101779.16;5132593;28;20037;-79
2022/05/01 10:15:20;;;;;;;0.82;0.82;;;;;;;14.22;47.57;101776.31;5155052;28;20065;-80
2022/05/01 10:17:51;;;;;;;1.33;1.25;;;;;;;14.20;48.16;101774.63;5133904;28;20058;-80
2022/05/01 10:20:23;;;;;;;1.08;1.08;;;;;;;14.17;48.03;101776.44;5168302;28;20042;-80
2022/05/01 10:22:55;;;;;;;2.95;1.83;;;;;;;14.19;46.16;101772.88;5163757;28;20034;-80
2022/05/01 10:25:26;;;;;;;1.65;1.55;;;;;;;14.09;45.58;101777.53;5113409;28;20042;-80
2022/05/01 10:28:08;;;;;;;2.58;1.85;;;;;;;14.19;44.85;101775.53;5129882;28;20109;-80
2022/05/01 10:33:57;;;;;;;3.20;2.08;;;;;;;14.24;45.11;101771.88;5162862;28;20053;-80
2022/05/01 10:36:50;;;;;;;1.52;1.30;;;;;;;14.19;45.11;101771.13;5125751;28;20249;-81
2022/05/01 10:39:24;;;;;;;2.13;1.23;;;;;;;14.21;43.63;101768.44;5126497;28;20035;-80
2022/05/01 10:41:54;;;;;;;0.60;0.60;;;;;;;14.27;45.97;101763.00;5130034;28;20057;-81
2022/05/01 10:44:30;;;;;;;1.10;1.00;;;;;;;14.30;45.04;101763.78;5139837;28;20073;-80
2022/05/01 10:47:27;;;;;;;1.88;1.70;;;;;;;14.34;43.62;101759.28;5139152;28;20041;-79
2022/05/01 10:50:10;;;;;;;0.80;0.80;;;;;;;14.18;44.58;101750.91;5114629;28;20115;-80
2022/05/01 10:53:11;;;;;;;2.58;1.45;;;;;;;14.29;43.87;101753.28;5112670;28;20070;-80
2022/05/01 10:55:42;;;;;;;1.05;0.95;;;;;;;14.39;44.15;101751.25;5127934;28;20034;-81
2022/05/01 10:58:27;;;;;;;1.88;1.77;;;;;;;14.27;43.93;101736.59;5127549;28;20088;-80
2022/05/01 11:00:57;;;;;;;2.00;1.58;;;;;;;14.19;40.65;101750.03;5142673;28;20057;-80
2022/05/01 11:03:36;;;;;;;1.63;1.52;;;;;;;14.21;41.75;101739.41;5111293;28;20088;-80
2022/05/01 11:06:08;;;;;;;1.73;1.63;;;;;;;14.16;42.96;101731.59;5138607;28;20026;-80
2022/05/01 11:08:40;;;;;;;2.80;2.58;;;;;;;14.26;43.94;101737.50;5123967;28;20083;-80
2022/05/01 11:11:12;;;;;;;1.30;1.20;;;;;;;14.37;44.03;101730.19;5127039;28;20037;-80
2022/05/01 11:13:43;;;;;;;1.55;1.45;;;;;;;14.21;42.86;101734.13;5126153;28;20053;-80
2022/05/01 11:16:13;;;;;;;1.20;1.10;;;;;;;14.40;43.88;101731.88;5130614;28;20374;-80
2022/05/01 11:18:44;;;;;;;1.00;1.00;;;;;;;14.43;42.48;101732.66;5125229;28;20061;-80
2022/05/01 11:21:20;;;;;;;2.15;2.05;;;;;;;14.58;43.84;101722.59;5126595;28;20521;-80
2022/05/01 11:23:57;;;;;;;3.17;1.63;;;;;;;14.60;43.56;101720.75;5127228;28;20068;-80
2022/05/01 11:26:29;;;;;;;1.35;1.27;;;;;;;14.62;43.75;101718.94;5130742;28;20030;-80
2022/05/01 11:29:10;;;;;;;2.00;1.80;;;;;;;14.56;43.14;101724.41;5111179;28;20057;-80
2022/05/01 11:31:45;;;;;;;1.63;1.52;;;;;;;14.62;44.15;101726.88;5113224;28;20088;-80
2022/05/01 11:34:29;;;;;;;17.83;2.03;;;;;;;14.67;43.20;101722.34;5133658;28;20089;-80
2022/05/01 11:37:02;;;;;;;2.15;1.25;;;;;;;14.84;43.90;101710.41;5143376;28;20034;-79
2022/05/01 11:39:45;;;;;;;;;;;;;;;14.94;43.55;101703.97;5140819;28;20318;-79
2022/05/01 11:42:25;;;;;;;1.30;1.20;;;;;;;14.95;41.25;101706.59;5159998;28;19949;-79
2022/05/01 11:44:57;;;;;;;1.90;1.80;;;;;;;15.02;42.48;101691.38;5152114;28;20034;-79
2022/05/01 11:47:31;;;;;;;3.57;2.47;;;;;;;15.05;42.19;101693.94;5124917;28;20268;-79
2022/05/01 11:50:03;;;;;;;1.27;1.17;;;;;;;15.17;41.94;101691.81;5117910;28;20290;-79
2022/05/01 11:52:37;;;;;;;2.90;2.25;;;;;;;15.15;41.49;101683.09;5132219;28;20125;-79
2022/05/01 11:55:08;;;;;;;1.75;1.65;;;;;;;15.39;42.82;101681.44;5148442;28;20035;-80
2022/05/01 12:03:29;;;;;;;1.45;1.35;;;;;;;15.42;41.49;101682.22;5125663;28;20046;-80
2022/05/01 12:06:00;;;;;;;2.00;1.42;;;;;;;15.70;41.78;101676.03;5126927;28;20112;-80
2022/05/01 12:08:30;;;;;;;11.30;2.33;;;;;;;15.63;41.43;101679.78;5141982;28;20492;-80
2022/05/01 12:11:27;;;;;;;1.63;1.52;;;;;;;15.69;41.40;101669.00;5114310;28;20052;-80
2022/05/01 12:14:05;;;;;;;2.13;1.95;;;;;;;15.81;40.02;101673.00;5140817;28;20038;-80